Tous vos exploits sur  Logo Planète Marathon le site 100% Marathon

Marathon de Surgères

Le 28/08/1993 - Edition 1993 - 58 arrivants                                                       Archives à consulter

Clmt. Temps Nom Prénom Club Organisme Catégorie
1 2:38:44 RENARD Jean-Noel Antoingt 63340 V1M (+)
2 2:39:25 NOWAC Richard Trizay 17250 V1M (+)
3 2:40:53 FRANCESCHI Henri Marolles En Hurepoix 91630 SEM (+)
4 2:49:03 KHEDDOUCI Mohamed Benon - Courcon 17170 V1M (+)
5 2:51:55 MARCELE Philippe Paris 75010 V2M (+)
6 2:56:11 RICHARD Dany Isle Jourdain 85150 SEM (+)
7 2:56:46 RICARD Rene Tallard 05130 V1M (+)
8 2:58:36 MARSAY Franck Aytre 17440 V1M (+)
9 2:59:59 DRUGEON Jany-Pierre Beurlay 17250 V1M/53 (+)
10 3:00:47 JOUSSEAUME Amand Surgeres 17700 SEM (+)
11 3:01:06 BARANCO Francois Aytre 17440 V1M (+)
12 3:01:40 CAZAJOUS Gilles Chauray 79180 V1M (+)
13 3:06:31 JONDOT Jean-Louis La Gripperie 17620 V1M (+)
14 3:06:32 VIGOT Serge Dompierre S/mer 17139 V1M (+)
15 3:08:36 PILLET Frederic Rochefort 17300 SEM (+)
16 3:09:33 PIGNON Jacques St Mlchel Mont Mercure 85700 V1M (+)
17 3:10:41 GANNE Jean-Michel St Jean De Liversay 17170 V1M (+)
18 3:10:41 JULLEAU Robert Vandre 17700 V1M (+)
19 3:11:44 FAU Pascal La Rochelle 17000 V1M (+)
20 3:12:57 PASTUREAU Claude St Gelais 79410 V1M (+)
21 3:13:52 PERRON Bernard St Manin Les Melles 79500 V1M (+)
22 3:14:09 GOUDEAU Bernard Niort 79000 V2M (+)
23 3:14:09 MALLEREAU Guy Angoulin S/mer 17690 V1M (+)
24 3:14:31 NAULT Alain Surgeres 17700 SEM (+)
25 3:14:52 Chauvet Jean-Marie Montoumais 85700 SEM (+)
26 3:16:01 BOURABIER Alain Soubise 17280 V1M (+)
27 3:17:47 CHATEAU Gerard Asnleres 92600 V1M (+)
28 3:18:03 HERBELIN Michel La Rochelle 17000 V2M (+)
29 3:18:22 FOUCAUD Michel Bourcefranc 17560 V1M (+)
30 3:19:05 CHAURAY James Vouhe 17700 V1M (+)
31 3:19:34 MATHIEU Pierre Poitiers 86000 SEM (+)
32 3:20:14 TOURNE Pascal Nlort 79000 SEM (+)
33 3:20:44 GUILLOTEAU Franck Maison Alfort 94700 V1M (+)
34 3:27:39 FUMOLEAU Michel La Floceliere 85700 V2M (+)
35 3:29:55 DEWELLE Jean-Marc Serre Et Montguyard 24500 SEM (+)
36 3:31:01 DAUNAS Daniel Beaugeay 17620 V1M (+)
37 3:34:18 ROULLEAU Alain La Rochelle 17000 V1M (+)
38 3:37:09 LECLERCQ Didier Dompierre S/mer 17139 V1M (+)
39 3:37:34 BIDARD Michel Surgeres 17700 V2M (+)
40 3:39:32 ODONNAT Gilbert La Rochelle 17000 V2M (+)
41 3:40:09 BLANPAIN Gilbert Esnandes 17137 V1M (+)
42 3:40:39 ARDOUIN Alain Chatelaillon 17340 V1M (+)
43 3:41:33 POUVREAU Robert Dompierre S/mer 17139 V2M (+)
44 3:42:10 QUERON Mariadic Oradour S/glane 87520 V1M/51 (+)
45 3:44:12 DELAVAUD Roger La Rochelle 17000 V1M (+)
46 3:44:26 CARNAUD Claude Paris 75003 V1M (+)
47 3:45:42 PRUNIER Daniel Frontenay Rohan-rohan 79270 SEM (+)
48 3:46:38 ERRARD Louis Bourgneuf 17220 V1M (+)
49 3:47:51 CHOLLET Claude La Rochelle 17000 V1M (+)
50 3:50:30 SAlNT-ARNOULT Stephane Fouras 17450 SEM (+)
51 3:50:34 SAUNIER Jean-Pierre Surgeres 17700 V1M (+)
52 3:54:36 MORNET Nicolas Mauze 79210 SEM (+)
53 3:56:13 GENDRONNEAU Jean-Luc L?absie 79240 SEM (+)
54 3:56:35 THEBAULT Alain St Martin Les Melles 79500 SEM (+)
55 3:56:49 MIOSSEC Pierre St Jean D'angely 17400 V3M (+)
56 4:09:02 MORISSET Stephanie La Rochelie 17000 SF (+)
57 4:16:52 RAMBAUD Stephane La Rochelie 17000 SEM (+)
58 4:17:54 CAQUINEAU Roland Mortagne-thaire 17290 V1M (+)